createdAt,value
2023-05-14T00:02:15.049Z,98667.84
2023-05-14T00:04:43.555Z,98665.03
2023-05-14T00:07:12.256Z,98661.34
2023-05-14T00:09:40.742Z,98656.84
2023-05-14T00:12:11.107Z,98653.00
2023-05-14T00:14:39.509Z,98654.91
2023-05-14T00:17:08.673Z,98653.66
2023-05-14T00:19:36.970Z,98653.19
2023-05-14T00:22:06.331Z,98650.91
2023-05-14T00:24:34.653Z,98656.91
2023-05-14T00:27:03.338Z,98658.28
2023-05-14T00:29:33.083Z,98654.75
2023-05-14T00:32:01.731Z,98649.09
2023-05-14T00:34:30.110Z,98646.81
2023-05-14T00:36:58.818Z,98645.28
2023-05-14T00:39:27.256Z,98646.81
2023-05-14T00:41:56.035Z,98643.66
2023-05-14T00:44:24.537Z,98637.97
2023-05-14T00:46:55.461Z,98638.47
2023-05-14T00:49:23.896Z,98634.19
2023-05-14T00:51:52.855Z,98647.03
2023-05-14T00:54:21.378Z,98641.44
2023-05-14T00:56:50.112Z,98642.88
2023-05-14T00:59:18.834Z,98649.44
2023-05-14T01:01:47.911Z,98647.56
2023-05-14T01:04:18.188Z,98659.06
2023-05-14T01:06:54.237Z,98654.03
2023-05-14T01:09:27.578Z,98660.53
2023-05-14T01:12:00.497Z,98663.03
2023-05-14T01:14:36.103Z,98660.47
2023-05-14T01:17:06.403Z,98666.38
2023-05-14T01:19:40.148Z,98665.63
2023-05-14T01:22:10.544Z,98658.56
2023-05-14T01:24:38.728Z,98651.66
2023-05-14T01:27:10.907Z,98648.81
2023-05-14T01:29:41.361Z,98656.41
2023-05-14T01:32:10.894Z,98658.31
2023-05-14T01:34:39.682Z,98654.56
2023-05-14T01:37:10.194Z,98652.13
2023-05-14T01:39:39.202Z,98653.19
2023-05-14T01:42:08.772Z,98658.97
2023-05-14T01:44:38.033Z,98657.22
2023-05-14T01:47:07.038Z,98648.78
2023-05-14T01:49:37.442Z,98656.59
2023-05-14T01:52:07.372Z,98655.91
2023-05-14T01:54:37.155Z,98651.66
2023-05-14T01:57:06.028Z,98646.28
2023-05-14T01:59:34.471Z,98645.66
2023-05-14T02:02:03.276Z,98641.03
2023-05-14T02:04:31.973Z,98648.53
2023-05-14T02:07:00.831Z,98639.53
2023-05-14T02:09:30.808Z,98644.78
2023-05-14T02:12:01.036Z,98635.06
2023-05-14T02:14:29.554Z,98634.38
2023-05-14T02:16:58.273Z,98642.44
2023-05-14T02:19:26.676Z,98638.25
2023-05-14T02:21:56.031Z,98640.50
2023-05-14T02:24:24.422Z,98639.41
2023-05-14T02:26:52.928Z,98633.31
2023-05-14T02:29:22.762Z,98633.00
2023-05-14T02:31:51.483Z,98648.19
2023-05-14T02:34:19.851Z,98644.81
2023-05-14T02:36:48.615Z,98642.13
2023-05-14T02:39:16.883Z,98633.59
2023-05-14T02:41:45.757Z,98641.31
2023-05-14T02:44:14.072Z,98627.19
2023-05-14T02:46:44.752Z,98634.66
2023-05-14T02:49:13.413Z,98622.94
2023-05-14T02:51:41.984Z,98623.53
2023-05-14T02:54:10.672Z,98624.66
2023-05-14T02:56:39.415Z,98618.59
2023-05-14T02:59:07.914Z,98617.44
2023-05-14T03:01:36.825Z,98620.13
2023-05-14T03:04:07.802Z,98619.56
2023-05-14T03:06:36.959Z,98615.75
2023-05-14T03:09:06.026Z,98609.59
2023-05-14T03:11:34.877Z,98610.63
2023-05-14T03:14:03.255Z,98602.69
2023-05-14T03:16:31.825Z,98607.69
2023-05-14T03:19:00.563Z,98602.06
2023-05-14T03:21:31.376Z,98596.75
2023-05-14T03:24:00.009Z,98593.69
2023-05-14T03:26:28.737Z,98594.19
2023-05-14T03:28:57.212Z,98602.53
2023-05-14T03:31:25.915Z,98601.34
2023-05-14T03:33:54.278Z,98599.91
2023-05-14T03:36:23.129Z,98599.78
2023-05-14T03:38:52.857Z,98602.34
2023-05-14T03:41:22.034Z,98590.84
2023-05-14T03:43:50.434Z,98592.09
2023-05-14T03:46:19.221Z,98592.72
2023-05-14T03:48:47.557Z,98596.56
2023-05-14T03:51:16.214Z,98587.63
2023-05-14T03:53:44.325Z,98587.81
2023-05-14T03:56:14.715Z,98581.31
2023-05-14T03:58:43.054Z,98583.06
2023-05-14T04:01:11.664Z,98585.19
2023-05-14T04:03:40.093Z,98591.94
2023-05-14T04:06:09.440Z,98596.44
2023-05-14T04:08:37.951Z,98590.38
2023-05-14T04:11:06.586Z,98585.84
2023-05-14T04:13:37.040Z,98592.81
2023-05-14T04:16:06.176Z,98590.75
2023-05-14T04:18:35.976Z,98589.97
2023-05-14T04:21:04.849Z,98591.84
2023-05-14T04:23:33.205Z,98592.59
2023-05-14T04:26:02.244Z,98600.88
2023-05-14T04:28:30.550Z,98592.16
2023-05-14T04:31:00.522Z,98593.06
2023-05-14T04:33:28.919Z,98603.66
2023-05-14T04:35:57.413Z,98588.22
2023-05-14T04:38:25.946Z,98590.97
2023-05-14T04:40:54.568Z,98590.06
2023-05-14T04:43:23.081Z,98592.72
2023-05-14T04:45:52.725Z,98596.41
2023-05-14T04:48:23.447Z,98587.59
2023-05-14T04:50:52.379Z,98587.34
2023-05-14T04:53:20.631Z,98584.22
2023-05-14T04:55:49.414Z,98583.84
2023-05-14T04:58:17.915Z,98579.81
2023-05-14T05:00:47.019Z,98579.38
2023-05-14T05:03:18.974Z,98579.59
2023-05-14T05:05:48.951Z,98587.28
2023-05-14T05:08:17.495Z,98585.88
2023-05-14T05:10:46.153Z,98580.69
2023-05-14T05:13:15.550Z,98571.88
2023-05-14T05:15:44.271Z,98574.31
2023-05-14T05:18:13.096Z,98572.50
2023-05-14T05:20:41.703Z,98580.13
2023-05-14T05:23:11.687Z,98571.09
2023-05-14T05:25:40.152Z,98580.03
2023-05-14T05:28:08.740Z,98569.41
2023-05-14T05:30:37.370Z,98572.38
2023-05-14T05:33:05.862Z,98563.69
2023-05-14T05:35:34.421Z,98561.75
2023-05-14T05:38:02.762Z,98559.31
2023-05-14T05:40:33.267Z,98561.75
2023-05-14T05:43:01.420Z,98565.22
2023-05-14T05:45:30.160Z,98563.59
2023-05-14T05:47:58.471Z,98560.78
2023-05-14T05:50:27.483Z,98566.22
2023-05-14T05:52:55.979Z,98567.53
2023-05-14T05:55:24.658Z,98567.13
2023-05-14T05:57:54.675Z,98569.56
2023-05-14T06:00:24.146Z,98562.56
2023-05-14T06:02:52.942Z,98570.47
2023-05-14T06:05:22.017Z,98569.47
2023-05-14T06:07:50.544Z,98570.03
2023-05-14T06:10:19.357Z,98568.66
2023-05-14T06:12:47.726Z,98564.69
2023-05-14T06:15:17.681Z,98548.06
2023-05-14T06:17:46.658Z,98550.69
2023-05-14T06:20:15.418Z,98545.34
2023-05-14T06:22:44.285Z,98543.44
2023-05-14T06:25:13.365Z,98546.50
2023-05-14T06:27:41.970Z,98552.72
2023-05-14T06:30:11.912Z,98550.78
2023-05-14T06:32:41.959Z,98540.38
2023-05-14T06:35:10.972Z,98537.63
2023-05-14T06:37:39.605Z,98539.16
2023-05-14T06:40:09.251Z,98541.94
2023-05-14T06:42:37.913Z,98535.53
2023-05-14T06:45:07.413Z,98535.41
2023-05-14T06:47:35.871Z,98541.91
2023-05-14T06:50:07.168Z,98545.56
2023-05-14T06:52:36.687Z,98547.75
2023-05-14T06:55:06.823Z,98548.88
2023-05-14T06:57:35.185Z,98544.91
2023-05-14T07:00:04.131Z,98539.56
2023-05-14T07:02:32.503Z,98537.44
2023-05-14T07:05:01.048Z,98540.09
2023-05-14T07:07:31.005Z,98532.38
2023-05-14T07:09:59.473Z,98521.88
2023-05-14T07:12:27.963Z,98522.69
2023-05-14T07:14:57.346Z,98526.84
2023-05-14T07:17:25.822Z,98526.41
2023-05-14T07:19:55.766Z,98530.06
2023-05-14T07:22:24.079Z,98528.97
2023-05-14T07:24:54.242Z,98537.28
2023-05-14T07:27:23.745Z,98544.28
2023-05-14T07:29:52.359Z,98538.00
2023-05-14T07:32:20.654Z,98554.22
2023-05-14T07:34:49.402Z,98539.78
2023-05-14T07:37:18.054Z,98536.78
2023-05-14T07:39:46.607Z,98534.97
2023-05-14T07:42:27.972Z,98530.41
2023-05-14T07:45:03.850Z,98541.22
2023-05-14T07:47:32.349Z,98544.59
2023-05-14T07:50:01.150Z,98534.94
2023-05-14T07:52:29.453Z,98528.13
2023-05-14T07:54:58.083Z,98528.84
2023-05-14T07:57:28.042Z,98528.75
2023-05-14T07:59:56.539Z,98526.16
2023-05-14T08:02:25.088Z,98506.78
2023-05-14T08:04:55.606Z,98504.94
2023-05-14T08:07:24.087Z,98496.34
2023-05-14T08:09:52.634Z,98493.94
2023-05-14T08:12:21.118Z,98487.63
2023-05-14T08:14:50.956Z,98491.91
2023-05-14T08:17:19.249Z,98491.75
2023-05-14T08:19:48.163Z,98485.50
2023-05-14T08:22:16.542Z,98467.47
2023-05-14T08:24:45.135Z,98476.47
2023-05-14T08:27:13.459Z,98465.97
2023-05-14T08:29:42.094Z,98455.78
2023-05-14T08:32:19.779Z,98458.00
2023-05-14T08:34:51.076Z,98456.16
2023-05-14T08:37:19.425Z,98444.75
2023-05-14T08:39:47.878Z,98447.06
2023-05-14T08:42:17.211Z,98458.53
2023-05-14T08:44:50.095Z,98437.06
2023-05-14T08:47:23.217Z,98448.44
2023-05-14T08:49:56.352Z,98441.97
2023-05-14T08:52:24.675Z,98435.53
2023-05-14T08:54:54.895Z,98445.50
2023-05-14T08:57:25.006Z,98443.00
2023-05-14T08:59:54.060Z,98438.81
2023-05-14T09:02:28.691Z,98441.34
2023-05-14T09:04:58.936Z,98427.38
2023-05-14T09:07:27.332Z,98425.03
2023-05-14T09:09:56.526Z,98422.63
2023-05-14T09:12:25.055Z,98416.47
2023-05-14T09:14:53.641Z,98416.31
2023-05-14T09:17:23.342Z,98422.19
2023-05-14T09:19:53.390Z,98423.50
2023-05-14T09:22:22.496Z,98418.53
2023-05-14T09:25:05.068Z,98419.28
2023-05-14T09:27:33.933Z,98421.38
2023-05-14T09:30:10.062Z,98424.66
2023-05-14T09:32:40.717Z,98416.97
2023-05-14T09:35:14.891Z,98413.06
2023-05-14T09:37:44.184Z,98410.75
2023-05-14T09:40:13.433Z,98416.25
2023-05-14T09:42:42.248Z,98416.50
2023-05-14T09:45:12.031Z,98409.00
2023-05-14T09:47:42.313Z,98399.75
2023-05-14T09:50:11.963Z,98400.31
2023-05-14T09:52:40.612Z,98401.41
2023-05-14T09:55:10.309Z,98386.19
2023-05-14T09:57:38.514Z,98387.50
2023-05-14T10:00:10.975Z,98380.31
2023-05-14T10:02:41.628Z,98386.84
2023-05-14T10:05:11.927Z,98375.13
2023-05-14T10:07:42.834Z,98374.78
2023-05-14T10:10:15.809Z,98363.72
2023-05-14T10:12:46.907Z,98361.47
2023-05-14T10:15:19.008Z,98362.16
2023-05-14T10:17:51.352Z,98357.81
2023-05-14T10:20:20.602Z,98350.91
2023-05-14T10:22:49.079Z,98350.47
2023-05-14T10:25:17.814Z,98342.00
2023-05-14T10:27:46.698Z,98339.72
2023-05-14T10:30:15.602Z,98327.84
2023-05-14T10:32:44.412Z,98337.06
2023-05-14T10:35:25.560Z,98330.03
2023-05-14T10:37:53.814Z,98321.34
2023-05-14T10:40:26.313Z,98315.91
2023-05-14T10:42:54.805Z,98313.84
2023-05-14T10:45:24.305Z,98317.13
2023-05-14T10:47:53.041Z,98314.97
2023-05-14T10:50:23.966Z,98309.22
2023-05-14T10:52:52.449Z,98318.16
2023-05-14T10:55:20.935Z,98307.56
2023-05-14T10:57:49.306Z,98315.13
2023-05-14T11:00:18.843Z,98309.97
2023-05-14T11:02:47.371Z,98309.19
2023-05-14T11:05:26.332Z,98306.72
2023-05-14T11:07:59.983Z,98313.25
2023-05-14T11:10:30.761Z,98307.59
2023-05-14T11:12:59.365Z,98311.50
2023-05-14T11:15:28.528Z,98311.22
2023-05-14T11:17:57.064Z,98311.34
2023-05-14T11:20:26.142Z,98292.53
2023-05-14T11:22:55.475Z,98295.75
2023-05-14T11:25:25.978Z,98292.50
2023-05-14T11:27:58.403Z,98282.13
2023-05-14T11:30:27.084Z,98288.56
2023-05-14T11:32:55.963Z,98294.81
2023-05-14T11:35:24.837Z,98293.25
2023-05-14T11:37:54.352Z,98290.72
2023-05-14T11:40:23.217Z,98289.94
2023-05-14T11:42:54.205Z,98292.06
2023-05-14T11:45:27.534Z,98288.31
2023-05-14T11:47:56.105Z,98280.00
2023-05-14T11:50:25.253Z,98279.63
2023-05-14T11:52:58.322Z,98276.22
2023-05-14T11:55:27.133Z,98285.78
2023-05-14T11:57:57.495Z,98275.72
2023-05-14T12:00:28.000Z,98269.31
2023-05-14T12:02:56.439Z,98263.28
2023-05-14T12:05:25.303Z,98258.06
2023-05-14T12:07:54.311Z,98255.25
2023-05-14T12:10:23.435Z,98252.41
2023-05-14T12:12:51.929Z,98255.47
2023-05-14T12:15:22.356Z,98247.56
2023-05-14T12:17:53.642Z,98247.94
2023-05-14T12:20:22.397Z,98248.63
2023-05-14T12:22:50.988Z,98238.03
2023-05-14T12:25:19.810Z,98233.06
2023-05-14T12:27:48.133Z,98235.28
2023-05-14T12:30:27.382Z,98231.69
2023-05-14T12:32:57.348Z,98215.34
2023-05-14T12:35:26.071Z,98218.88
2023-05-14T12:37:54.701Z,98225.81
2023-05-14T12:40:23.311Z,98213.44
2023-05-14T12:42:51.972Z,98214.78
2023-05-14T12:45:20.711Z,98212.22
2023-05-14T12:47:49.123Z,98208.38
2023-05-14T12:50:19.745Z,98203.88
2023-05-14T12:52:48.087Z,98195.06
2023-05-14T12:55:17.095Z,98199.13
2023-05-14T12:57:45.573Z,98195.78
2023-05-14T13:00:15.353Z,98184.56
2023-05-14T13:02:44.144Z,98196.53
2023-05-14T13:05:13.276Z,98201.38
2023-05-14T13:07:43.353Z,98185.44
2023-05-14T13:10:12.861Z,98173.81
2023-05-14T13:12:41.406Z,98182.97
2023-05-14T13:15:11.222Z,98181.44
2023-05-14T13:17:41.589Z,98177.47
2023-05-14T13:20:11.062Z,98185.63
2023-05-14T13:22:39.742Z,98176.88
2023-05-14T13:25:10.792Z,98177.00
2023-05-14T13:27:39.120Z,98180.19
2023-05-14T13:30:09.150Z,98175.44
2023-05-14T13:32:42.087Z,98164.66
2023-05-14T13:35:11.161Z,98158.94
2023-05-14T13:37:39.561Z,98149.28
2023-05-14T13:40:11.169Z,98144.28
2023-05-14T13:42:40.750Z,98144.34
2023-05-14T13:45:10.221Z,98132.44
2023-05-14T13:47:40.114Z,98131.69
2023-05-14T13:50:09.941Z,98141.94
2023-05-14T13:52:39.172Z,98136.78
2023-05-14T13:55:10.378Z,98128.81
2023-05-14T13:57:39.953Z,98111.66
2023-05-14T14:00:10.033Z,98105.94
2023-05-14T14:02:40.594Z,98095.13
2023-05-14T14:05:10.516Z,98102.25
2023-05-14T14:07:40.859Z,98112.63
2023-05-14T14:10:11.998Z,98120.84
2023-05-14T14:12:40.741Z,98099.06
2023-05-14T14:15:09.997Z,98094.28
2023-05-14T14:17:39.098Z,98087.69
2023-05-14T14:20:09.792Z,98094.25
2023-05-14T14:22:39.153Z,98072.44
2023-05-14T14:25:08.871Z,98078.78
2023-05-14T14:27:38.931Z,98073.88
2023-05-14T14:30:09.756Z,98075.72
2023-05-14T14:32:38.189Z,98080.50
2023-05-14T14:35:07.783Z,98070.91
2023-05-14T14:37:36.173Z,98065.97
2023-05-14T14:40:07.238Z,98064.28
2023-05-14T14:42:35.782Z,98069.78
2023-05-14T14:45:06.881Z,98061.00
2023-05-14T14:47:35.172Z,98055.81
2023-05-14T14:50:04.812Z,98044.34
2023-05-14T14:52:33.286Z,98043.34
2023-05-14T14:55:01.994Z,98037.31
2023-05-14T14:57:30.215Z,98046.66
2023-05-14T15:00:00.302Z,98029.16
2023-05-14T15:02:31.415Z,98022.50
2023-05-14T15:05:00.756Z,98024.25
2023-05-14T15:07:33.003Z,98023.03
2023-05-14T15:10:01.701Z,98013.66
2023-05-14T15:12:30.173Z,98016.47
2023-05-14T15:14:58.823Z,98017.56
2023-05-14T15:17:27.402Z,98016.28
2023-05-14T15:19:57.595Z,98014.41
2023-05-14T15:22:26.094Z,98018.41
2023-05-14T15:24:54.587Z,98031.25
2023-05-14T15:27:22.836Z,98029.38
2023-05-14T15:29:51.527Z,98021.88
2023-05-14T15:32:19.828Z,98016.66
2023-05-14T15:34:48.376Z,98025.16
2023-05-14T15:37:18.087Z,98015.25
2023-05-14T15:39:46.884Z,98012.88
2023-05-14T15:42:15.184Z,98000.56
2023-05-14T15:44:43.803Z,98003.75
2023-05-14T15:47:12.222Z,98007.19
2023-05-14T15:49:40.890Z,97996.66
2023-05-14T15:52:09.470Z,97996.25
2023-05-14T15:54:40.309Z,97995.84
2023-05-14T15:57:08.845Z,97991.16
2023-05-14T15:59:37.676Z,97977.59
2023-05-14T16:02:07.125Z,97979.00
2023-05-14T16:04:38.688Z,97978.22
2023-05-14T16:07:09.978Z,97969.22
2023-05-14T16:09:42.298Z,97962.94
2023-05-14T16:12:10.765Z,97966.91
2023-05-14T16:14:45.319Z,97954.69
2023-05-14T16:17:19.009Z,97971.28
2023-05-14T16:19:47.715Z,97965.09
2023-05-14T16:22:16.066Z,97966.53
2023-05-14T16:24:46.339Z,97963.50
2023-05-14T16:27:14.901Z,97959.53
2023-05-14T16:29:43.684Z,97973.41
2023-05-14T16:32:12.493Z,97959.56
2023-05-14T16:34:41.063Z,97962.16
2023-05-14T16:37:10.791Z,97957.66
2023-05-14T16:39:41.089Z,97959.88
2023-05-14T16:42:11.205Z,97967.34
2023-05-14T16:44:40.216Z,97962.44
2023-05-14T16:47:08.892Z,97968.94
2023-05-14T16:49:37.765Z,97958.88
2023-05-14T16:52:07.226Z,97956.91
2023-05-14T16:54:36.632Z,97957.84
2023-05-14T16:57:06.197Z,97955.84
2023-05-14T16:59:36.206Z,97947.91
2023-05-14T17:02:04.684Z,97948.66
2023-05-14T17:04:38.803Z,97950.09
2023-05-14T17:07:07.301Z,97953.22
2023-05-14T17:09:35.894Z,97944.84
2023-05-14T17:12:04.296Z,97943.69
2023-05-14T17:14:33.042Z,97940.59
2023-05-14T17:17:03.550Z,97940.69
2023-05-14T17:19:32.184Z,97938.97
2023-05-14T17:22:00.718Z,97930.78
2023-05-14T17:24:29.226Z,97942.72
2023-05-14T17:26:57.605Z,97936.38
2023-05-14T17:29:26.439Z,97926.22
2023-05-14T17:31:54.876Z,97930.78
2023-05-14T17:34:25.553Z,97922.66
2023-05-14T17:36:53.774Z,97925.75
2023-05-14T17:39:22.963Z,97929.31
2023-05-14T17:41:51.335Z,97931.97
2023-05-14T17:44:19.836Z,97929.31
2023-05-14T17:46:49.771Z,97922.03
2023-05-14T17:49:18.386Z,97928.84
2023-05-14T17:51:48.419Z,97939.50
2023-05-14T17:54:16.890Z,97940.34
2023-05-14T17:56:45.284Z,97937.22
2023-05-14T17:59:13.956Z,97948.72
2023-05-14T18:01:42.483Z,97956.13
2023-05-14T18:04:11.563Z,97977.22
2023-05-14T18:06:40.265Z,97960.91
2023-05-14T18:09:10.489Z,97971.72
2023-05-14T18:11:38.925Z,97963.84
2023-05-14T18:14:07.512Z,97972.03
2023-05-14T18:16:36.246Z,97979.97
2023-05-14T18:19:05.235Z,97984.53
2023-05-14T18:21:33.735Z,97987.41
2023-05-14T18:24:02.507Z,97992.25
2023-05-14T18:26:34.203Z,97998.34
2023-05-14T18:29:03.183Z,97992.09
2023-05-14T18:31:31.545Z,97998.03
2023-05-14T18:34:00.192Z,97996.41
2023-05-14T18:36:28.919Z,97991.69
2023-05-14T18:38:57.577Z,97986.25
2023-05-14T18:41:26.508Z,97988.63
2023-05-14T18:43:58.044Z,97975.31
2023-05-14T18:46:26.686Z,97974.66
2023-05-14T18:48:55.377Z,97971.75
2023-05-14T18:51:23.760Z,97974.06
2023-05-14T18:53:53.133Z,97971.03
2023-05-14T18:56:21.362Z,97966.19
2023-05-14T18:58:50.238Z,97974.16
2023-05-14T19:01:21.249Z,97970.91
2023-05-14T19:03:50.098Z,97971.50
2023-05-14T19:06:18.819Z,97980.78
2023-05-14T19:08:47.589Z,97982.69
2023-05-14T19:11:16.440Z,97988.94
2023-05-14T19:13:46.758Z,97990.38
2023-05-14T19:16:15.406Z,97987.97
2023-05-14T19:18:45.525Z,97983.94
2023-05-14T19:21:14.951Z,97988.50
2023-05-14T19:23:43.594Z,97985.91
2023-05-14T19:26:11.961Z,97980.97
2023-05-14T19:28:41.013Z,97984.56
2023-05-14T19:31:09.477Z,97984.94
2023-05-14T19:33:38.209Z,98003.63
2023-05-14T19:36:08.358Z,97995.84
2023-05-14T19:38:37.714Z,97999.78
2023-05-14T19:41:06.493Z,97998.78
2023-05-14T19:43:35.039Z,98000.69
2023-05-14T19:46:04.445Z,98011.16
2023-05-14T19:48:34.167Z,98013.84
2023-05-14T19:51:02.577Z,98018.09
2023-05-14T19:53:32.673Z,98020.41
2023-05-14T19:56:01.997Z,98031.69
2023-05-14T19:58:30.785Z,98016.34
2023-05-14T20:01:00.938Z,98022.13
2023-05-14T20:03:33.191Z,98006.50
2023-05-14T20:06:02.070Z,98004.13
2023-05-14T20:08:32.059Z,98004.63
2023-05-14T20:11:00.326Z,98001.75
2023-05-14T20:13:32.027Z,97995.75
2023-05-14T20:16:00.231Z,97987.03
2023-05-14T20:18:28.971Z,97988.69
2023-05-14T20:20:57.656Z,97978.94
2023-05-14T20:23:26.294Z,97979.09
2023-05-14T20:25:56.302Z,97962.84
2023-05-14T20:28:25.034Z,97956.41
2023-05-14T20:30:54.895Z,97954.31
2023-05-14T20:33:23.565Z,97948.63
2023-05-14T20:35:52.587Z,97939.84
2023-05-14T20:38:21.996Z,97927.75
2023-05-14T20:40:50.201Z,97924.56
2023-05-14T20:43:21.154Z,97918.09
2023-05-14T20:45:49.527Z,97901.00
2023-05-14T20:48:20.193Z,97899.56
2023-05-14T20:50:48.876Z,97887.31
2023-05-14T20:53:17.708Z,97872.91
2023-05-14T20:55:46.052Z,97859.09
2023-05-14T20:58:14.531Z,97838.41
2023-05-14T21:00:44.667Z,97838.63
2023-05-14T21:03:13.405Z,97830.88
2023-05-14T21:05:43.732Z,97814.28
2023-05-14T21:08:12.798Z,97808.03
2023-05-14T21:10:41.106Z,97790.13
2023-05-14T21:13:09.909Z,97790.03
2023-05-14T21:15:38.268Z,97796.03
2023-05-14T21:18:08.383Z,97789.34
2023-05-14T21:20:36.886Z,97787.47
2023-05-14T21:23:05.715Z,97784.91
2023-05-14T21:25:35.267Z,97782.28
2023-05-14T21:28:03.905Z,97780.34
2023-05-14T21:30:32.342Z,97785.72
2023-05-14T21:33:01.029Z,97780.44
2023-05-14T21:35:30.719Z,97779.63
2023-05-14T21:37:59.431Z,97773.59
2023-05-14T21:40:27.865Z,97789.03
2023-05-14T21:42:56.708Z,97771.00
2023-05-14T21:45:25.333Z,97781.34
2023-05-14T21:47:54.208Z,97776.38
2023-05-14T21:50:22.744Z,97769.28
2023-05-14T21:52:52.781Z,97754.88
2023-05-14T21:55:21.084Z,97756.75
2023-05-14T21:57:49.877Z,97751.19
2023-05-14T22:00:23.392Z,97742.59
2023-05-14T22:02:53.628Z,97735.31
2023-05-14T22:05:22.534Z,97728.38
2023-05-14T22:07:53.454Z,97729.50
2023-05-14T22:10:21.785Z,97722.38
2023-05-14T22:12:50.520Z,97727.75
2023-05-14T22:15:19.001Z,97732.94
2023-05-14T22:17:48.208Z,97730.34
2023-05-14T22:20:17.023Z,97731.94
2023-05-14T22:22:45.556Z,97717.78
2023-05-14T22:25:15.720Z,97707.59
2023-05-14T22:27:44.403Z,97700.25
2023-05-14T22:30:13.660Z,97697.22
2023-05-14T22:32:42.365Z,97692.78
2023-05-14T22:35:11.312Z,97684.00
2023-05-14T22:37:40.160Z,97689.16
2023-05-14T22:40:10.084Z,97688.72
2023-05-14T22:42:40.436Z,97692.88
2023-05-14T22:45:10.109Z,97699.06
2023-05-14T22:47:39.128Z,97692.78
2023-05-14T22:50:11.770Z,97698.56
2023-05-14T22:52:40.982Z,97693.50
2023-05-14T22:55:10.429Z,97691.56
2023-05-14T22:57:41.427Z,97692.19
2023-05-14T23:00:11.636Z,97680.09
2023-05-14T23:02:40.336Z,97663.78
2023-05-14T23:05:09.887Z,97665.88
2023-05-14T23:07:38.789Z,97648.25
2023-05-14T23:10:08.269Z,97638.81
2023-05-14T23:12:36.951Z,97641.63
2023-05-14T23:15:07.874Z,97643.19
2023-05-14T23:17:36.682Z,97643.28
2023-05-14T23:20:06.332Z,97636.94
2023-05-14T23:22:34.920Z,97626.25
2023-05-14T23:25:03.215Z,97616.78
2023-05-14T23:27:32.027Z,97630.94
2023-05-14T23:30:01.087Z,97621.63
2023-05-14T23:32:31.392Z,97616.78
2023-05-14T23:34:59.912Z,97616.91
2023-05-14T23:37:28.472Z,97625.19
2023-05-14T23:39:56.858Z,97620.34
2023-05-14T23:42:26.003Z,97620.16
2023-05-14T23:44:54.446Z,97612.78
2023-05-14T23:47:23.638Z,97620.31
2023-05-14T23:49:53.474Z,97593.81
2023-05-14T23:52:22.086Z,97606.28
2023-05-14T23:54:50.712Z,97603.09
2023-05-14T23:57:19.174Z,97596.03
2023-05-14T23:59:47.858Z,97581.25
